Time;durP1;ratioP1;P1;durP2;ratioP2;P2;SDS_P1;SDS_P2;PMS_P1;PMS_P2;Temp;Humidity;BMP_temperature;BMP_pressure;BME280_temperature;BME280_humidity;BME280_pressure;Samples;Min_cycle;Max_cycle;Signal;HPM_P1;HPM_P2
2023/05/01 00:00:11;;;;;;;5.50;2.63;;;6.70;99.90;;;;;;4993014;28;20180;-82
2023/05/01 00:02:37;;;;;;;5.30;2.53;;;6.60;99.90;;;;;;4992847;28;20180;-82
2023/05/01 00:05:03;;;;;;;5.73;3.17;;;6.50;99.90;;;;;;4993352;28;20207;-82
2023/05/01 00:07:30;;;;;;;7.77;3.70;;;6.50;99.90;;;;;;5012531;28;20609;-83
2023/05/01 00:09:56;;;;;;;6.07;2.90;;;6.50;99.90;;;;;;5013549;28;20202;-82
2023/05/01 00:12:22;;;;;;;5.17;2.90;;;6.50;99.90;;;;;;5012447;28;20187;-83
2023/05/01 00:14:48;;;;;;;4.47;2.73;;;6.50;99.90;;;;;;5013839;28;20175;-82
2023/05/01 00:17:15;;;;;;;6.17;2.40;;;6.50;99.90;;;;;;5012506;28;20186;-82
2023/05/01 00:19:41;;;;;;;3.47;2.10;;;6.50;99.90;;;;;;5012544;28;20606;-83
2023/05/01 00:22:06;;;;;;;8.00;2.80;;;6.60;99.90;;;;;;5012421;28;20190;-82
2023/05/01 00:24:32;;;;;;;4.37;2.60;;;6.50;99.90;;;;;;5013251;28;20230;-83
2023/05/01 00:26:58;;;;;;;8.37;3.10;;;6.40;99.90;;;;;;5013631;28;20553;-83
2023/05/01 00:29:24;;;;;;;6.70;2.93;;;6.30;99.90;;;;;;5012399;28;20178;-82
2023/05/01 00:31:50;;;;;;;5.00;3.27;;;6.30;99.90;;;;;;5011956;28;20180;-82
2023/05/01 00:34:15;;;;;;;7.77;2.97;;;6.30;99.90;;;;;;5002319;28;20250;-83
2023/05/01 00:36:41;;;;;;;5.73;3.10;;;6.20;99.90;;;;;;5005645;28;20535;-82
2023/05/01 00:39:07;;;;;;;7.90;3.13;;;6.20;99.90;;;;;;5013344;28;20175;-82
2023/05/01 00:41:36;;;;;;;5.77;3.00;;;6.20;99.90;;;;;;5013009;28;20564;-82
2023/05/01 00:44:02;;;;;;;7.50;2.60;;;6.20;99.90;;;;;;5017258;28;20177;-81
2023/05/01 00:46:29;;;;;;;3.57;2.70;;;6.20;99.90;;;;;;5016126;28;20560;-83
2023/05/01 00:48:57;;;;;;;4.73;2.63;;;6.10;99.90;;;;;;5016129;28;20167;-82
2023/05/01 00:51:26;;;;;;;5.60;2.70;;;6.10;99.90;;;;;;5016090;28;20175;-83
2023/05/01 00:53:51;;;;;;;5.60;2.77;;;5.90;99.90;;;;;;5016931;28;20572;-82
2023/05/01 00:56:17;;;;;;;4.13;2.50;;;5.90;99.90;;;;;;5017324;28;20559;-83
2023/05/01 00:58:51;;;;;;;4.63;2.73;;;5.80;99.90;;;;;;5017151;28;20160;-82
2023/05/01 01:01:17;;;;;;;5.07;3.10;;;5.80;99.90;;;;;;5015895;28;20241;-82
2023/05/01 01:03:43;;;;;;;5.07;2.87;;;5.80;99.90;;;;;;5015846;28;20497;-82
2023/05/01 01:06:21;;;;;;;5.77;2.83;;;5.80;99.90;;;;;;5011337;28;20274;-83
2023/05/01 01:08:50;;;;;;;4.43;2.70;;;5.70;99.90;;;;;;5015630;28;20318;-82
2023/05/01 01:11:27;;;;;;;6.83;2.77;;;5.60;99.90;;;;;;5016910;28;20618;-82
2023/05/01 01:14:10;;;;;;;6.77;2.53;;;5.60;99.90;;;;;;5016841;28;20159;-82
2023/05/01 01:16:53;;;;;;;3.23;2.43;;;5.60;99.90;;;;;;5015583;28;20187;-81
2023/05/01 01:19:34;;;;;;;5.53;2.50;;;5.50;99.90;;;;;;5015555;28;20175;-82
2023/05/01 01:22:12;;;;;;;5.83;2.50;;;5.50;99.90;;;;;;5015458;28;20183;-82
2023/05/01 01:25:05;;;;;;;5.37;2.73;;;5.40;99.90;;;;;;5012887;28;20543;-83
2023/05/01 01:28:08;;;;;;;4.20;2.40;;;5.50;99.90;;;;;;4996661;28;20710;-83
2023/05/01 01:31:00;;;;;;;8.33;2.57;;;5.50;99.90;;;;;;5013636;28;20179;-82
2023/05/01 01:33:35;;;;;;;6.40;2.97;;;5.40;99.90;;;;;;5015272;28;20501;-83
2023/05/01 01:36:06;;;;;;;6.10;2.93;;;5.40;99.90;;;;;;5016524;28;20178;-82
2023/05/01 01:38:41;;;;;;;4.60;2.63;;;5.30;99.90;;;;;;5013361;28;20221;-82
2023/05/01 01:41:12;;;;;;;4.53;2.53;;;5.30;99.90;;;;;;5015262;28;20171;-82
2023/05/01 01:43:42;;;;;;;6.33;3.07;;;5.20;99.90;;;;;;5014967;28;20171;-82
2023/05/01 01:46:10;;;;;;;4.90;2.53;;;5.20;99.90;;;;;;5015129;28;20254;-82
2023/05/01 01:48:40;;;;;;;6.43;2.80;;;5.20;99.90;;;;;;5014825;28;20187;-82
2023/05/01 01:51:11;;;;;;;6.27;3.30;;;5.10;99.90;;;;;;5014870;28;20192;-82
2023/05/01 01:53:39;;;;;;;4.17;2.93;;;5.10;99.90;;;;;;5014456;28;20274;-82
2023/05/01 01:56:07;;;;;;;5.40;2.73;;;5.20;99.90;;;;;;5016203;28;20179;-83
2023/05/01 01:58:35;;;;;;;5.67;2.80;;;5.30;99.90;;;;;;5014890;28;20229;-82
2023/05/01 02:01:04;;;;;;;9.03;2.93;;;5.20;99.90;;;;;;5014793;28;20182;-82
2023/05/01 02:03:31;;;;;;;4.73;2.60;;;5.20;99.90;;;;;;5014543;28;20721;-83
2023/05/01 02:05:59;;;;;;;4.43;3.03;;;5.20;99.90;;;;;;5015993;28;20215;-83
2023/05/01 02:08:29;;;;;;;7.40;3.07;;;5.10;99.90;;;;;;5015901;28;20167;-82
2023/05/01 02:10:58;;;;;;;5.90;3.03;;;5.00;99.90;;;;;;5015859;28;20179;-82
2023/05/01 02:13:27;;;;;;;8.43;3.00;;;5.00;99.90;;;;;;5014464;28;20525;-83
2023/05/01 02:15:57;;;;;;;6.90;3.10;;;4.90;99.90;;;;;;5014556;28;20213;-82
2023/05/01 02:18:25;;;;;;;5.53;2.90;;;4.90;99.90;;;;;;5014494;28;20195;-82
2023/05/01 02:20:52;;;;;;;5.40;2.73;;;5.00;99.90;;;;;;5014482;28;20190;-82
2023/05/01 02:23:17;;;;;;;5.43;2.70;;;5.00;99.90;;;;;;5020279;28;20283;-83
2023/05/01 02:25:46;;;;;;;8.87;2.87;;;5.00;99.90;;;;;;5035168;28;20573;-82
2023/05/01 02:28:15;;;;;;;6.93;2.83;;;5.00;99.90;;;;;;5035064;28;20182;-81
2023/05/01 02:30:40;;;;;;;3.90;2.73;;;5.10;99.90;;;;;;5034094;28;20505;-83
2023/05/01 02:33:07;;;;;;;6.50;2.60;;;5.10;99.90;;;;;;5035057;28;20174;-82
2023/05/01 02:35:42;;;;;;;8.00;2.97;;;5.00;99.90;;;;;;5035245;28;20174;-82
2023/05/01 02:38:11;;;;;;;5.03;3.27;;;4.90;99.90;;;;;;5035057;28;20177;-82
2023/05/01 02:40:38;;;;;;;9.70;4.73;;;4.90;99.90;;;;;;5020223;28;20613;-82
2023/05/01 02:43:08;;;;;;;7.37;3.73;;;4.90;99.90;;;;;;5013151;28;20541;-82
2023/05/01 02:45:38;;;;;;;6.40;3.63;;;4.90;99.90;;;;;;5001705;28;20211;-82
2023/05/01 02:48:06;;;;;;;9.93;4.70;;;5.00;99.90;;;;;;4994370;28;20180;-82
2023/05/01 02:50:33;;;;;;;8.17;3.37;;;5.10;99.90;;;;;;5015046;28;20175;-82
2023/05/01 02:53:00;;;;;;;3.97;2.90;;;5.20;99.90;;;;;;5013655;28;20186;-82
2023/05/01 02:55:26;;;;;;;7.90;2.60;;;5.20;99.90;;;;;;5013602;28;20210;-83
2023/05/01 02:57:52;;;;;;;7.33;2.67;;;5.10;99.90;;;;;;5013536;28;20201;-82
2023/05/01 03:00:18;;;;;;;5.07;2.67;;;5.10;99.90;;;;;;5015043;28;20254;-83
2023/05/01 03:02:45;;;;;;;7.53;2.97;;;5.10;99.90;;;;;;4995061;28;20276;-82
2023/05/01 03:05:11;;;;;;;8.33;3.30;;;5.00;99.90;;;;;;5009840;28;20298;-82
2023/05/01 03:07:36;;;;;;;10.93;4.00;;;4.80;99.90;;;;;;5010337;28;20219;-82
2023/05/01 03:10:03;;;;;;;7.57;3.93;;;4.70;99.90;;;;;;5009838;28;20180;-82
2023/05/01 03:12:32;;;;;;;6.60;3.47;;;4.70;99.90;;;;;;5010233;28;20194;-82
2023/05/01 03:14:58;;;;;;;6.23;3.30;;;4.50;99.90;;;;;;5009482;28;20188;-82
2023/05/01 03:17:24;;;;;;;9.30;3.83;;;4.40;99.90;;;;;;5008091;28;20195;-82
2023/05/01 03:19:50;;;;;;;8.10;3.30;;;4.20;99.90;;;;;;5014537;28;20226;-83
2023/05/01 03:22:16;;;;;;;7.40;2.77;;;4.20;99.90;;;;;;5011866;28;20194;-82
2023/05/01 03:24:42;;;;;;;4.93;2.73;;;4.20;99.90;;;;;;5013971;28;20704;-82
2023/05/01 03:27:10;;;;;;;5.53;3.07;;;4.10;99.90;;;;;;5013228;28;20638;-82
2023/05/01 03:29:36;;;;;;;5.10;2.83;;;4.10;99.90;;;;;;5014508;28;20163;-82
2023/05/01 03:32:03;;;;;;;4.83;2.47;;;4.20;99.90;;;;;;5014213;28;20178;-82
2023/05/01 03:34:29;;;;;;;7.50;3.40;;;4.30;99.90;;;;;;5013097;28;20187;-82
2023/05/01 03:36:55;;;;;;;4.73;3.03;;;4.40;99.90;;;;;;5014402;28;20238;-82
2023/05/01 03:39:21;;;;;;;7.30;2.80;;;4.50;99.90;;;;;;5012625;28;20270;-83
2023/05/01 03:41:46;;;;;;;5.77;2.97;;;4.50;99.90;;;;;;5014232;28;20194;-82
2023/05/01 03:44:12;;;;;;;8.80;3.57;;;4.60;99.90;;;;;;5013376;28;20637;-83
2023/05/01 03:46:38;;;;;;;8.77;3.03;;;4.50;99.90;;;;;;5012087;28;20615;-82
2023/05/01 03:49:04;;;;;;;6.43;3.43;;;4.50;99.90;;;;;;5014032;28;20246;-82
2023/05/01 03:51:29;;;;;;;5.57;3.33;;;4.50;99.90;;;;;;5014068;28;20258;-82
2023/05/01 03:53:57;;;;;;;7.97;3.40;;;4.50;99.90;;;;;;5013741;28;20171;-82
2023/05/01 03:56:24;;;;;;;7.80;3.37;;;4.40;99.90;;;;;;5014186;28;20171;-82
2023/05/01 03:58:51;;;;;;;5.67;3.10;;;4.40;99.90;;;;;;5014190;28;20175;-82
2023/05/01 04:01:17;;;;;;;7.50;3.77;;;4.40;99.90;;;;;;5013863;28;20168;-82
2023/05/01 04:03:43;;;;;;;8.03;3.37;;;4.40;99.90;;;;;;5013868;28;20185;-83
2023/05/01 04:06:09;;;;;;;10.47;3.23;;;4.40;99.90;;;;;;5012600;28;20211;-82
2023/05/01 04:08:34;;;;;;;7.13;3.37;;;4.40;99.90;;;;;;5012684;28;20202;-82
2023/05/01 04:11:00;;;;;;;9.40;3.50;;;4.40;99.90;;;;;;5011853;28;20692;-83
2023/05/01 04:13:26;;;;;;;8.63;3.10;;;4.50;99.90;;;;;;5012468;28;20179;-82
2023/05/01 04:15:54;;;;;;;6.60;2.80;;;4.60;99.90;;;;;;5013860;28;20618;-82
2023/05/01 04:18:20;;;;;;;5.97;3.27;;;4.70;99.90;;;;;;5016592;28;20524;-82
2023/05/01 04:20:45;;;;;;;9.17;3.10;;;4.80;99.90;;;;;;5016720;28;20179;-82
2023/05/01 04:23:11;;;;;;;6.63;3.13;;;4.80;99.90;;;;;;5016052;28;20235;-82
2023/05/01 04:25:37;;;;;;;9.53;3.60;;;4.80;99.90;;;;;;4999195;28;20211;-82
2023/05/01 04:28:04;;;;;;;8.17;3.60;;;4.90;99.90;;;;;;5007228;28;20194;-82
2023/05/01 04:30:30;;;;;;;7.77;2.90;;;5.00;99.90;;;;;;5005778;28;20176;-82
2023/05/01 04:32:57;;;;;;;8.10;3.03;;;5.00;99.90;;;;;;5004798;28;20187;-82
2023/05/01 04:35:24;;;;;;;8.30;3.40;;;5.10;99.90;;;;;;4996795;28;20194;-82
2023/05/01 04:37:51;;;;;;;6.73;3.63;;;5.10;99.90;;;;;;5011520;28;20195;-82
2023/05/01 04:40:17;;;;;;;12.50;3.40;;;5.20;99.90;;;;;;5017126;28;20168;-82
2023/05/01 04:42:42;;;;;;;5.93;3.53;;;5.30;99.90;;;;;;5017562;28;20266;-82
2023/05/01 04:45:08;;;;;;;6.23;3.20;;;5.40;99.90;;;;;;5016072;28;20219;-82
2023/05/01 04:47:34;;;;;;;8.63;3.70;;;5.40;99.90;;;;;;5016094;28;20187;-82
2023/05/01 04:50:00;;;;;;;8.83;3.80;;;5.50;99.90;;;;;;5016173;28;20175;-82
2023/05/01 04:52:25;;;;;;;8.37;3.80;;;5.50;99.90;;;;;;5015866;28;20183;-82
2023/05/01 04:54:51;;;;;;;8.53;3.37;;;5.60;99.90;;;;;;5015336;28;20217;-82
2023/05/01 04:57:17;;;;;;;7.57;3.63;;;5.70;99.90;;;;;;5015262;28;20648;-82
2023/05/01 04:59:43;;;;;;;8.73;3.73;;;5.70;99.90;;;;;;5015722;28;20186;-82
2023/05/01 05:02:09;;;;;;;10.83;3.83;;;5.80;99.90;;;;;;5014381;28;20241;-81
2023/05/01 05:04:34;;;;;;;7.93;3.53;;;6.00;99.90;;;;;;5015340;28;20262;-81
2023/05/01 05:07:00;;;;;;;8.40;3.63;;;6.00;99.90;;;;;;5015738;28;20219;-82
2023/05/01 05:09:26;;;;;;;12.97;4.27;;;6.10;99.90;;;;;;5012926;28;20278;-82
2023/05/01 05:11:51;;;;;;;9.23;4.13;;;6.20;99.90;;;;;;5010589;28;20708;-81
2023/05/01 05:14:17;;;;;;;12.70;3.93;;;6.30;99.90;;;;;;5016592;28;20183;-81
2023/05/01 05:16:42;;;;;;;9.47;3.90;;;6.30;99.90;;;;;;5016389;28;20217;-82
2023/05/01 05:19:08;;;;;;;16.93;4.47;;;6.30;99.90;;;;;;5016489;28;20496;-82
2023/05/01 05:21:34;;;;;;;6.60;3.47;;;6.30;99.90;;;;;;5015052;28;20212;-82
2023/05/01 05:24:00;;;;;;;8.70;4.10;;;6.30;99.90;;;;;;5015033;28;20219;-81
2023/05/01 05:26:26;;;;;;;6.20;3.83;;;6.30;99.90;;;;;;5016497;28;20636;-82
2023/05/01 05:28:52;;;;;;;7.10;3.73;;;6.40;99.90;;;;;;5014324;28;20194;-82
2023/05/01 05:31:18;;;;;;;6.07;3.50;;;6.30;99.90;;;;;;5013886;28;20876;-81
2023/05/01 05:33:44;;;;;;;6.83;3.17;;;6.40;99.90;;;;;;5010157;28;20187;-82
2023/05/01 05:36:10;;;;;;;6.53;3.53;;;6.50;99.90;;;;;;5009758;28;20187;-83
2023/05/01 05:38:36;;;;;;;9.93;3.77;;;6.60;99.90;;;;;;4999617;28;20179;-83
2023/05/01 05:41:02;;;;;;;9.00;4.20;;;6.80;99.90;;;;;;5001720;28;20195;-82
2023/05/01 05:43:28;;;;;;;9.03;3.73;;;7.00;99.90;;;;;;5014217;28;20194;-81
2023/05/01 05:46:00;;;;;;;8.17;3.83;;;7.20;99.90;;;;;;5010956;28;20357;-82
2023/05/01 05:48:26;;;;;;;8.97;3.50;;;7.30;99.90;;;;;;5011466;28;20211;-81
2023/05/01 05:50:52;;;;;;;5.10;3.60;;;7.40;99.90;;;;;;4995415;28;20618;-82
2023/05/01 05:53:18;;;;;;;11.03;4.23;;;7.50;99.90;;;;;;4995152;28;20184;-82
2023/05/01 05:55:46;;;;;;;10.37;3.30;;;7.60;99.90;;;;;;4996336;28;20180;-82
2023/05/01 05:58:13;;;;;;;5.57;3.40;;;7.70;99.90;;;;;;4994962;28;20176;-82
2023/05/01 06:00:40;;;;;;;9.03;3.50;;;7.80;99.90;;;;;;5001318;28;20175;-81
2023/05/01 06:03:06;;;;;;;9.70;3.57;;;8.00;99.90;;;;;;5013695;28;20179;-82
2023/05/01 06:05:33;;;;;;;7.63;3.40;;;8.00;99.90;;;;;;5014541;28;20211;-82
2023/05/01 06:07:58;;;;;;;8.43;3.57;;;8.20;99.90;;;;;;5014522;28;20183;-81
2023/05/01 06:10:24;;;;;;;7.50;3.47;;;8.30;99.90;;;;;;5015420;28;20191;-82
2023/05/01 06:12:50;;;;;;;9.27;3.40;;;8.50;99.90;;;;;;5012162;28;20171;-81
2023/05/01 06:15:16;;;;;;;7.10;3.37;;;8.60;99.90;;;;;;5013013;28;20234;-81
2023/05/01 06:17:42;;;;;;;6.30;3.70;;;8.70;99.90;;;;;;5013407;28;20513;-80
2023/05/01 06:20:09;;;;;;;7.03;3.50;;;8.80;99.90;;;;;;5012262;28;20190;-81
2023/05/01 06:22:35;;;;;;;8.40;3.53;;;8.80;99.90;;;;;;5012018;28;20221;-81
2023/05/01 06:25:00;;;;;;;7.63;3.20;;;8.80;99.90;;;;;;5002158;28;20184;-81
2023/05/01 06:27:26;;;;;;;8.33;3.33;;;8.90;99.90;;;;;;4994780;28;20257;-82
2023/05/01 06:29:52;;;;;;;6.60;3.53;;;8.90;99.90;;;;;;5012654;28;20190;-81
2023/05/01 06:32:17;;;;;;;7.87;3.57;;;9.10;99.90;;;;;;5015383;28;20176;-80
2023/05/01 06:34:43;;;;;;;7.60;3.23;;;9.30;99.90;;;;;;5015580;28;20198;-80
2023/05/01 06:37:09;;;;;;;11.17;3.87;;;9.40;99.90;;;;;;5015350;28;20527;-82
2023/05/01 06:39:35;;;;;;;10.97;3.87;;;9.60;99.90;;;;;;5013183;28;20195;-82
2023/05/01 06:42:02;;;;;;;7.68;3.38;;;9.90;99.90;;;;;;5014985;28;20179;-82
2023/05/01 06:44:28;;;;;;;6.77;2.73;;;10.10;99.90;;;;;;5012713;28;20191;-80
2023/05/01 06:46:55;;;;;;;6.53;2.90;;;10.30;99.90;;;;;;5006703;28;20305;-82
2023/05/01 06:49:21;;;;;;;12.50;3.70;;;10.40;99.90;;;;;;5013980;28;20183;-81
2023/05/01 06:51:47;;;;;;;6.40;3.13;;;10.60;99.90;;;;;;5013782;28;20723;-81
2023/05/01 06:54:12;;;;;;;7.25;3.60;;;10.70;99.90;;;;;;5013945;28;20187;-82
2023/05/01 06:56:38;;;;;;;5.82;3.25;;;10.80;99.90;;;;;;5011227;28;20298;-82
2023/05/01 06:59:04;;;;;;;12.27;3.22;;;10.80;99.90;;;;;;5013618;28;20233;-82
2023/05/01 07:01:30;;;;;;;6.35;3.50;;;10.80;99.90;;;;;;5013753;28;20191;-81
2023/05/01 07:03:56;;;;;;;6.80;2.85;;;10.90;99.90;;;;;;5014886;28;20171;-83
2023/05/01 07:06:21;;;;;;;10.77;3.00;;;11.10;99.90;;;;;;5013684;28;20218;-82
2023/05/01 07:08:47;;;;;;;9.18;3.50;;;11.20;99.90;;;;;;5012667;28;20187;-82
2023/05/01 07:11:13;;;;;;;8.60;3.47;;;11.50;99.90;;;;;;5029635;28;20194;-83
2023/05/01 07:13:39;;;;;;;8.63;3.50;;;11.60;99.90;;;;;;5030085;28;20179;-81
2023/05/01 07:16:05;;;;;;;6.15;3.40;;;11.90;99.90;;;;;;5012040;28;20610;-82
2023/05/01 07:18:31;;;;;;;9.40;3.88;;;12.10;99.70;;;;;;5013994;28;20189;-81
2023/05/01 07:20:57;;;;;;;8.93;4.00;;;12.30;98.80;;;;;;5026532;28;20709;-81
2023/05/01 07:23:24;;;;;;;7.85;3.58;;;12.40;99.30;;;;;;5012816;28;20219;-82
2023/05/01 07:25:49;;;;;;;9.40;4.40;;;12.60;97.90;;;;;;5013037;28;20284;-83
2023/05/01 07:28:18;;;;;;;7.57;4.13;;;12.70;98.50;;;;;;5014349;28;20661;-82
2023/05/01 07:30:43;;;;;;;7.13;4.07;;;12.80;97.80;;;;;;5013161;28;20433;-81
2023/05/01 07:33:10;;;;;;;7.82;4.25;;;12.80;96.50;;;;;;5014481;28;20217;-83
2023/05/01 07:35:36;;;;;;;8.35;4.35;;;12.80;96.90;;;;;;5029603;28;20210;-83
2023/05/01 07:38:02;;;;;;;8.65;4.20;;;12.90;98.10;;;;;;5013184;28;20665;-82
2023/05/01 07:40:27;;;;;;;8.25;4.20;;;13.00;97.30;;;;;;5012780;28;20189;-82
2023/05/01 07:42:53;;;;;;;8.93;4.60;;;13.00;96.80;;;;;;5014149;28;20171;-83
2023/05/01 07:45:19;;;;;;;6.43;4.07;;;13.00;97.10;;;;;;5012958;28;20293;-83
2023/05/01 07:47:44;;;;;;;10.50;5.03;;;13.10;96.20;;;;;;5014440;28;20179;-82
2023/05/01 07:50:11;;;;;;;10.50;4.60;;;13.00;96.30;;;;;;5012805;28;20183;-83
2023/05/01 07:52:37;;;;;;;11.57;4.88;;;12.90;97.20;;;;;;5012870;28;20193;-82
2023/05/01 07:55:04;;;;;;;9.57;5.20;;;13.00;97.10;;;;;;5011889;28;20261;-82
2023/05/01 07:57:32;;;;;;;10.27;5.88;;;13.00;96.80;;;;;;5012768;28;20174;-82
2023/05/01 07:59:58;;;;;;;10.48;5.82;;;13.20;96.30;;;;;;5011461;28;20671;-80
2023/05/01 08:02:24;;;;;;;11.88;6.32;;;13.30;96.70;;;;;;5011443;28;20637;-82
2023/05/01 08:04:50;;;;;;;13.48;6.63;;;13.40;97.40;;;;;;5028133;28;20198;-81
2023/05/01 08:07:16;;;;;;;14.15;7.75;;;13.60;97.30;;;;;;5013390;28;20218;-82
2023/05/01 08:09:42;;;;;;;14.25;7.45;;;13.80;96.30;;;;;;5012055;28;20175;-82
2023/05/01 08:12:08;;;;;;;15.65;8.00;;;13.90;95.80;;;;;;5012675;28;20190;-82
2023/05/01 08:14:33;;;;;;;16.20;9.63;;;14.00;96.60;;;;;;5012748;28;20179;-82
2023/05/01 08:16:59;;;;;;;14.30;9.25;;;14.00;94.20;;;;;;5014005;28;20175;-81
2023/05/01 08:19:26;;;;;;;16.00;9.18;;;14.10;94.40;;;;;;5013821;28;20175;-82
2023/05/01 08:21:52;;;;;;;14.80;9.55;;;14.20;94.40;;;;;;5012391;28;20186;-82
2023/05/01 08:24:18;;;;;;;16.33;9.05;;;14.30;95.20;;;;;;5012310;28;20239;-82
2023/05/01 08:26:44;;;;;;;16.67;9.77;;;14.50;93.60;;;;;;5013511;28;20225;-81
2023/05/01 08:29:10;;;;;;;13.30;8.55;;;14.70;93.10;;;;;;5012464;28;20182;-83
2023/05/01 08:31:38;;;;;;;17.38;8.82;;;14.90;92.40;;;;;;5013774;28;20171;-83
2023/05/01 08:34:04;;;;;;;15.15;8.75;;;15.10;93.30;;;;;;5012398;28;20174;-82
2023/05/01 08:36:31;;;;;;;13.27;7.82;;;15.30;92.00;;;;;;5012454;28;20254;-81
2023/05/01 08:38:57;;;;;;;13.07;8.73;;;15.40;92.30;;;;;;5013640;28;20267;-80
2023/05/01 08:41:24;;;;;;;14.43;8.00;;;15.50;91.40;;;;;;5013206;28;20670;-80
2023/05/01 08:43:50;;;;;;;12.30;7.38;;;15.50;91.10;;;;;;5013676;28;20625;-83
2023/05/01 08:46:28;;;;;;;14.40;7.60;;;15.70;91.30;;;;;;5012320;28;20211;-83
2023/05/01 08:48:58;;;;;;;10.93;7.20;;;15.80;91.80;;;;;;5028792;28;20258;-81
2023/05/01 08:51:25;;;;;;;13.73;6.57;;;15.90;91.30;;;;;;5013584;28;20258;-83
2023/05/01 08:53:53;;;;;;;11.70;6.80;;;15.90;90.00;;;;;;5013428;28;20191;-82
2023/05/01 08:56:22;;;;;;;13.40;6.43;;;15.90;90.40;;;;;;5012088;28;20614;-83
2023/05/01 08:58:48;;;;;;;13.32;6.32;;;16.00;89.30;;;;;;5012278;28;20229;-83
2023/05/01 09:01:15;;;;;;;10.15;5.30;;;16.00;89.20;;;;;;5011968;28;20229;-83
2023/05/01 09:03:43;;;;;;;10.55;6.05;;;15.90;89.00;;;;;;5014651;28;20171;-81
2023/05/01 09:06:10;;;;;;;14.02;6.70;;;16.00;87.70;;;;;;5017079;28;20289;-81
2023/05/01 09:08:36;;;;;;;11.00;6.07;;;15.90;89.20;;;;;;5015863;28;20225;-82
2023/05/01 09:11:03;;;;;;;12.90;5.68;;;16.00;90.60;;;;;;5032056;28;20584;-83
2023/05/01 09:13:30;;;;;;;11.38;5.50;;;16.00;90.00;;;;;;5015691;28;20214;-82
2023/05/01 09:15:56;;;;;;;11.50;6.10;;;16.10;88.60;;;;;;5016930;28;20183;-80
2023/05/01 09:18:22;;;;;;;12.27;5.43;;;16.10;88.30;;;;;;5017238;28;20179;-82
2023/05/01 09:20:48;;;;;;;8.63;5.30;;;16.00;90.00;;;;;;5016701;28;20665;-83
2023/05/01 09:23:14;;;;;;;8.20;5.32;;;15.80;88.80;;;;;;5015263;28;20230;-81
2023/05/01 09:25:41;;;;;;;8.63;4.53;;;15.80;89.50;;;;;;5016534;28;20573;-81
2023/05/01 09:28:06;;;;;;;8.82;5.50;;;15.90;90.20;;;;;;5016759;28;20562;-81
2023/05/01 09:30:37;;;;;;;8.75;4.50;;;16.00;88.70;;;;;;5015042;28;20183;-82
2023/05/01 09:33:11;;;;;;;7.97;4.78;;;16.10;90.00;;;;;;5015145;28;20225;-82
2023/05/01 09:35:54;;;;;;;9.65;4.47;;;16.20;90.10;;;;;;5015283;28;20175;-83
2023/05/01 09:38:25;;;;;;;6.20;4.28;;;16.50;91.20;;;;;;5015441;28;20175;-82
2023/05/01 09:40:52;;;;;;;8.52;3.95;;;16.60;89.30;;;;;;5016167;28;20640;-83
2023/05/01 09:43:28;;;;;;;10.85;4.70;;;16.70;86.40;;;;;;5016417;28;20183;-83
2023/05/01 09:46:08;;;;;;;7.07;4.53;;;16.70;85.50;;;;;;5016226;28;20653;-83
2023/05/01 09:48:34;;;;;;;9.85;4.68;;;16.80;85.40;;;;;;5015100;28;20217;-82
2023/05/01 09:51:00;;;;;;;7.35;4.28;;;17.00;88.90;;;;;;5015046;28;20176;-82
2023/05/01 09:53:37;;;;;;;9.63;4.35;;;17.00;88.60;;;;;;5014883;28;20270;-81
2023/05/01 09:56:03;;;;;;;9.45;4.20;;;17.00;84.00;;;;;;5016026;28;20164;-82
2023/05/01 09:58:29;;;;;;;9.00;3.80;;;17.00;85.50;;;;;;5014859;28;20540;-82
2023/05/01 10:00:55;;;;;;;8.43;4.22;;;17.10;86.70;;;;;;5014960;28;20179;-82
2023/05/01 10:03:21;;;;;;;7.20;4.15;;;17.10;87.50;;;;;;5014797;28;20175;-82
2023/05/01 10:05:46;;;;;;;7.53;4.18;;;17.10;85.20;;;;;;5014733;28;20221;-82
2023/05/01 10:08:13;;;;;;;9.55;3.88;;;17.10;86.00;;;;;;5014650;28;20180;-83
2023/05/01 10:10:42;;;;;;;11.40;4.38;;;17.10;86.90;;;;;;5014160;28;20179;-81
2023/05/01 10:13:16;;;;;;;7.88;4.38;;;17.20;87.50;;;;;;5015709;28;20178;-83
2023/05/01 10:15:49;;;;;;;9.05;3.90;;;17.30;86.70;;;;;;5013537;28;20238;-82
2023/05/01 10:18:16;;;;;;;10.70;4.22;;;17.40;85.30;;;;;;5015831;28;20501;-81
2023/05/01 10:20:42;;;;;;;9.07;4.13;;;17.50;86.70;;;;;;5015657;28;20586;-81
2023/05/01 10:23:09;;;;;;;9.90;4.60;;;17.70;86.50;;;;;;5013996;28;20231;-81
2023/05/01 10:25:36;;;;;;;6.25;3.33;;;17.80;83.20;;;;;;5015292;28;20584;-81
2023/05/01 10:28:06;;;;;;;7.00;3.42;;;17.90;83.50;;;;;;5031005;28;20182;-82
2023/05/01 10:30:32;;;;;;;6.90;3.45;;;17.80;81.90;;;;;;5014225;28;20975;-82
2023/05/01 10:32:58;;;;;;;8.40;3.60;;;17.80;84.70;;;;;;5015329;28;20175;-81
2023/05/01 10:35:30;;;;;;;5.78;3.80;;;18.00;84.10;;;;;;5015397;28;20226;-82
2023/05/01 10:38:06;;;;;;;7.20;4.00;;;18.00;83.10;;;;;;5014096;28;20176;-81
2023/05/01 10:40:38;;;;;;;5.93;3.70;;;18.00;85.20;;;;;;5015193;28;20167;-82
2023/05/01 10:43:16;;;;;;;7.93;3.50;;;18.10;84.60;;;;;;5013944;28;20321;-81
2023/05/01 10:45:46;;;;;;;6.35;3.70;;;18.20;83.40;;;;;;5015127;28;20237;-82
2023/05/01 10:48:32;;;;;;;9.77;4.43;;;18.30;84.10;;;;;;5014069;28;20176;-81
2023/05/01 10:51:16;;;;;;;5.93;3.20;;;18.30;85.20;;;;;;5013763;28;20194;-82
2023/05/01 10:53:45;;;;;;;6.50;3.33;;;18.40;84.10;;;;;;5014587;28;20170;-83
2023/05/01 10:56:22;;;;;;;10.18;4.13;;;18.40;83.00;;;;;;5004015;28;20204;-82
2023/05/01 10:59:04;;;;;;;5.20;3.20;;;18.70;89.60;;;;;;5005815;28;20430;-81
2023/05/01 11:01:38;;;;;;;6.93;3.40;;;18.80;83.50;;;;;;5039371;28;20185;-81
2023/05/01 11:04:27;;;;;;;5.70;3.38;;;18.80;83.00;;;;;;5011837;28;20179;-81
2023/05/01 11:07:04;;;;;;;9.95;3.53;;;18.70;82.70;;;;;;5004131;28;20193;-81
2023/05/01 11:09:42;;;;;;;5.65;3.00;;;18.80;86.20;;;;;;5003072;28;20172;-83
2023/05/01 11:12:10;;;;;;;7.10;3.30;;;19.00;88.00;;;;;;5005220;28;20182;-82
2023/05/01 11:15:01;;;;;;;5.78;3.13;;;19.00;89.40;;;;;;5002857;28;20307;-81
2023/05/01 11:17:48;;;;;;;5.20;3.20;;;19.20;80.40;;;;;;5001155;28;20598;-84
2023/05/01 11:20:27;;;;;;;6.45;2.53;;;19.30;86.30;;;;;;5000215;28;20170;-82
2023/05/01 11:22:57;;;;;;;7.25;3.58;;;19.20;87.40;;;;;;5004519;28;20235;-83
2023/05/01 11:25:29;;;;;;;5.07;2.85;;;19.10;85.80;;;;;;5008328;28;20184;-81
2023/05/01 11:27:56;;;;;;;7.82;2.95;;;19.30;83.90;;;;;;5006478;28;20190;-83
2023/05/01 11:30:23;;;;;;;5.60;2.78;;;19.40;86.60;;;;;;5010894;28;20176;-81
2023/05/01 11:32:50;;;;;;;7.47;3.60;;;19.20;84.80;;;;;;5021562;28;20192;-81
2023/05/01 11:35:25;;;;;;;4.70;2.90;;;19.30;87.20;;;;;;4996776;28;20614;-81
2023/05/01 11:37:52;;;;;;;4.97;2.75;;;19.30;80.20;;;;;;5007723;28;20232;-80
2023/05/01 11:40:23;;;;;;;4.50;3.03;;;19.20;81.50;;;;;;5002003;28;20175;-82
2023/05/01 11:42:50;;;;;;;5.00;2.95;;;19.30;86.40;;;;;;5005636;28;20203;-81
2023/05/01 11:45:17;;;;;;;7.57;2.90;;;19.20;85.20;;;;;;5009947;28;20645;-81
2023/05/01 11:47:43;;;;;;;5.47;2.92;;;19.30;83.10;;;;;;5012288;28;20178;-81
2023/05/01 11:50:10;;;;;;;4.30;2.83;;;19.40;83.60;;;;;;5029102;28;20179;-81
2023/05/01 11:52:52;;;;;;;6.05;3.17;;;19.70;82.40;;;;;;5012495;28;20214;-82
2023/05/01 11:55:18;;;;;;;5.90;2.88;;;19.50;83.00;;;;;;5012495;28;20186;-82
2023/05/01 11:57:52;;;;;;;5.05;2.90;;;19.40;84.00;;;;;;5012736;28;20233;-82
2023/05/01 12:00:36;;;;;;;5.03;3.05;;;19.50;82.00;;;;;;5011998;28;20178;-83
2023/05/01 12:03:10;;;;;;;6.55;2.88;;;19.70;86.10;;;;;;5012373;28;20618;-83
2023/05/01 12:05:38;;;;;;;6.93;3.35;;;19.90;90.60;;;;;;5012687;28;20171;-83
2023/05/01 12:08:19;;;;;;;5.18;3.28;;;20.00;87.30;;;;;;5013921;28;20262;-82
2023/05/01 12:10:51;;;;;;;7.72;3.38;;;20.20;85.40;;;;;;5013855;28;20207;-82
2023/05/01 12:13:18;;;;;;;4.70;2.97;;;20.20;81.10;;;;;;5013627;28;20185;-82
2023/05/01 12:15:50;;;;;;;6.97;2.53;;;20.30;83.00;;;;;;5008758;28;20669;-82
2023/05/01 12:18:17;;;;;;;4.95;3.28;;;20.20;83.40;;;;;;5008436;28;20483;-82
2023/05/01 12:20:51;;;;;;;5.43;3.00;;;20.30;77.80;;;;;;5013617;28;20183;-82
2023/05/01 12:23:19;;;;;;;8.77;3.40;;;20.20;80.10;;;;;;5013449;28;20218;-82
2023/05/01 12:25:45;;;;;;;5.40;3.47;;;20.20;79.40;;;;;;5012634;28;20255;-81
2023/05/01 12:28:19;;;;;;;4.93;3.20;;;20.10;78.70;;;;;;5010352;28;20195;-81
2023/05/01 12:30:47;;;;;;;4.07;2.80;;;20.10;77.20;;;;;;5013294;28;20167;-80
2023/05/01 12:33:20;;;;;;;5.55;3.17;;;20.10;78.70;;;;;;5008477;28;20186;-82
2023/05/01 12:35:48;;;;;;;7.70;3.70;;;20.20;78.90;;;;;;5007054;28;20202;-81
2023/05/01 12:38:19;;;;;;;6.15;3.55;;;20.10;76.40;;;;;;5013183;28;20198;-81
2023/05/01 12:40:52;;;;;;;5.68;3.15;;;20.00;76.90;;;;;;5017014;28;20159;-81
2023/05/01 12:43:28;;;;;;;10.38;3.65;;;20.20;81.20;;;;;;5006003;28;20628;-81
2023/05/01 12:45:54;;;;;;;6.03;3.30;;;20.30;81.50;;;;;;5011451;28;20501;-81
2023/05/01 12:48:20;;;;;;;5.63;3.45;;;20.40;77.60;;;;;;5016426;28;20191;-81
2023/05/01 12:50:53;;;;;;;6.30;3.55;;;20.40;79.20;;;;;;5016939;28;20501;-81
2023/05/01 12:53:20;;;;;;;7.00;3.53;;;20.50;79.30;;;;;;5015879;28;20190;-82
2023/05/01 12:55:49;;;;;;;5.85;3.50;;;20.50;77.40;;;;;;5016210;28;20211;-82